createdAt,value
2016-11-22T00:00:01.679Z,1022.48
2016-11-22T00:01:01.672Z,1022.39
2016-11-22T00:02:01.667Z,1022.38
2016-11-22T00:03:01.661Z,1022.34
2016-11-22T00:04:01.653Z,1022.35
2016-11-22T00:05:01.643Z,1022.31
2016-11-22T00:06:01.635Z,1022.27
2016-11-22T00:07:01.625Z,1022.33
2016-11-22T00:08:01.617Z,1022.33
2016-11-22T00:09:01.610Z,1022.34
2016-11-22T00:10:01.602Z,1022.39
2016-11-22T00:11:01.596Z,1022.44
2016-11-22T00:12:01.587Z,1022.48
2016-11-22T00:13:01.579Z,1022.53
2016-11-22T00:14:01.571Z,1022.56
2016-11-22T00:15:01.564Z,1022.58
2016-11-22T00:16:01.556Z,1022.59
2016-11-22T00:17:01.551Z,1022.62
2016-11-22T00:18:01.541Z,1022.57
2016-11-22T00:19:01.533Z,1022.64
2016-11-22T00:20:01.526Z,1022.73
2016-11-22T00:21:01.520Z,1022.7
2016-11-22T00:22:01.510Z,1022.69
2016-11-22T00:23:01.503Z,1022.65
2016-11-22T00:24:01.498Z,1022.67
2016-11-22T00:25:01.489Z,1022.66
2016-11-22T00:26:01.480Z,1022.63
2016-11-22T00:27:01.472Z,1022.63
2016-11-22T00:28:01.464Z,1022.58
2016-11-22T00:29:01.456Z,1022.55
2016-11-22T00:30:01.448Z,1022.53
2016-11-22T00:31:01.441Z,1022.49
2016-11-22T00:32:01.435Z,1022.45
2016-11-22T00:33:01.425Z,1022.47
2016-11-22T00:34:01.420Z,1022.5
2016-11-22T00:35:01.415Z,1022.48
2016-11-22T00:36:01.405Z,1022.49
2016-11-22T00:37:01.396Z,1022.49
2016-11-22T00:38:01.389Z,1022.5
2016-11-22T00:39:01.379Z,1022.47
2016-11-22T00:40:01.374Z,1022.45
2016-11-22T00:41:01.364Z,1022.41
2016-11-22T00:42:01.359Z,1022.4
2016-11-22T00:43:01.349Z,1022.41
2016-11-22T00:44:01.343Z,1022.41
2016-11-22T00:45:01.334Z,1022.45
2016-11-22T00:46:01.326Z,1022.45
2016-11-22T00:47:01.318Z,1022.44
2016-11-22T00:48:01.311Z,1022.47
2016-11-22T00:49:01.303Z,1022.5
2016-11-22T00:50:01.297Z,1022.52
2016-11-22T00:51:01.290Z,1022.55
2016-11-22T00:52:01.280Z,1022.56
2016-11-22T00:53:01.274Z,1022.58
2016-11-22T00:54:01.265Z,1022.62
2016-11-22T00:55:01.258Z,1022.63
2016-11-22T00:56:01.253Z,1022.64
2016-11-22T00:57:01.244Z,1022.63
2016-11-22T00:58:01.234Z,1022.7
2016-11-22T00:59:01.227Z,1022.7
2016-11-22T01:00:01.220Z,1022.7
2016-11-22T01:01:01.211Z,1022.75
2016-11-22T01:02:01.206Z,1022.78
2016-11-22T01:03:01.200Z,1022.83
2016-11-22T01:04:01.191Z,1022.84
2016-11-22T01:05:01.181Z,1022.89
2016-11-22T01:06:01.173Z,1022.93
2016-11-22T01:07:01.167Z,1022.92
2016-11-22T01:08:01.158Z,1022.93
2016-11-22T01:09:01.152Z,1022.91
2016-11-22T01:10:01.144Z,1022.88
2016-11-22T01:11:01.135Z,1022.88
2016-11-22T01:12:01.127Z,1022.84
2016-11-22T01:13:01.121Z,1022.86
2016-11-22T01:14:01.113Z,1022.84
2016-11-22T01:15:01.103Z,1022.8
2016-11-22T01:16:01.097Z,1022.76
2016-11-22T01:17:01.087Z,1022.74
2016-11-22T01:18:01.082Z,1022.74
2016-11-22T01:19:01.072Z,1022.76
2016-11-22T01:20:01.066Z,1022.73
2016-11-22T01:21:01.058Z,1022.72
2016-11-22T01:22:01.051Z,1022.76
2016-11-22T01:23:01.041Z,1022.75
2016-11-22T01:24:01.035Z,1022.75
2016-11-22T01:25:01.028Z,1022.74
2016-11-22T01:26:01.022Z,1022.71
2016-11-22T01:27:01.012Z,1022.7
2016-11-22T01:28:01.003Z,1022.66
2016-11-22T01:29:00.995Z,1022.7
2016-11-22T01:30:00.988Z,1022.66
2016-11-22T01:31:00.981Z,1022.67
2016-11-22T01:32:00.972Z,1022.68
2016-11-22T01:33:00.966Z,1022.65
2016-11-22T01:34:00.958Z,1022.66
2016-11-22T01:35:00.950Z,1022.63
2016-11-22T01:36:00.941Z,1022.61
2016-11-22T01:37:00.933Z,1022.6
2016-11-22T01:38:00.925Z,1022.6
2016-11-22T01:39:00.920Z,1022.58
2016-11-22T01:40:00.910Z,1022.54
2016-11-22T01:41:00.905Z,1022.56
2016-11-22T01:42:00.894Z,1022.56
2016-11-22T01:43:00.887Z,1022.59
2016-11-22T01:44:00.884Z,1022.56
2016-11-22T01:45:00.871Z,1022.56
2016-11-22T01:46:00.866Z,1022.54
2016-11-22T01:47:00.859Z,1022.51
2016-11-22T01:48:00.851Z,1022.54
2016-11-22T01:49:00.845Z,1022.54
2016-11-22T01:50:00.836Z,1022.55
2016-11-22T01:51:00.826Z,1022.55
2016-11-22T01:52:00.819Z,1022.49
2016-11-22T01:53:00.812Z,1022.51
2016-11-22T01:54:00.804Z,1022.52
2016-11-22T01:55:00.797Z,1022.51
2016-11-22T01:56:00.787Z,1022.54
2016-11-22T01:57:00.781Z,1022.53
2016-11-22T01:58:00.772Z,1022.48
2016-11-22T01:59:00.767Z,1022.46
2016-11-22T02:00:00.758Z,1022.49
2016-11-22T02:01:00.748Z,1022.43
2016-11-22T02:02:00.743Z,1022.45
2016-11-22T02:03:00.736Z,1022.5
2016-11-22T02:04:00.725Z,1022.51
2016-11-22T02:05:00.720Z,1022.48
2016-11-22T02:06:00.710Z,1022.48
2016-11-22T02:07:00.704Z,1022.49
2016-11-22T02:08:00.694Z,1022.51
2016-11-22T02:09:00.687Z,1022.49
2016-11-22T02:10:00.680Z,1022.43
2016-11-22T02:11:00.671Z,1022.48
2016-11-22T02:12:00.666Z,1022.52
2016-11-22T02:13:00.659Z,1022.55
2016-11-22T02:14:00.649Z,1022.53
2016-11-22T02:15:00.642Z,1022.54
2016-11-22T02:16:00.635Z,1022.54
2016-11-22T02:17:00.627Z,1022.57
2016-11-22T02:18:00.621Z,1022.54
2016-11-22T02:19:00.614Z,1022.54
2016-11-22T02:20:00.607Z,1022.56
2016-11-22T02:21:00.599Z,1022.56
2016-11-22T02:22:00.589Z,1022.54
2016-11-22T02:23:00.583Z,1022.55
2016-11-22T02:24:00.576Z,1022.54
2016-11-22T02:25:00.565Z,1022.57
2016-11-22T02:26:00.559Z,1022.58
2016-11-22T02:27:00.551Z,1022.56
2016-11-22T02:28:00.543Z,1022.6
2016-11-22T02:29:00.535Z,1022.57
2016-11-22T02:30:00.527Z,1022.57
2016-11-22T02:31:00.520Z,1022.59
2016-11-22T02:32:00.515Z,1022.57
2016-11-22T02:33:00.504Z,1022.58
2016-11-22T02:34:00.497Z,1022.6
2016-11-22T02:35:00.491Z,1022.6
2016-11-22T02:36:00.483Z,1022.58
2016-11-22T02:37:00.473Z,1022.57
2016-11-22T02:38:00.468Z,1022.56
2016-11-22T02:39:00.460Z,1022.52
2016-11-22T02:40:00.450Z,1022.56
2016-11-22T02:41:00.442Z,1022.5
2016-11-22T02:42:00.435Z,1022.47
2016-11-22T02:43:00.429Z,1022.49
2016-11-22T02:44:00.423Z,1022.5
2016-11-22T02:45:00.414Z,1022.46
2016-11-22T02:46:00.405Z,1022.46
2016-11-22T02:47:00.397Z,1022.47
2016-11-22T02:48:00.392Z,1022.49
2016-11-22T02:49:00.382Z,1022.48
2016-11-22T02:50:00.377Z,1022.55
2016-11-22T02:51:00.367Z,1022.58
2016-11-22T02:52:00.361Z,1022.64
2016-11-22T02:53:00.355Z,1022.66
2016-11-22T02:54:00.345Z,1022.68
2016-11-22T02:55:00.337Z,1022.7
2016-11-22T02:56:00.331Z,1022.77
2016-11-22T02:57:00.324Z,1022.79
2016-11-22T02:58:00.316Z,1022.85
2016-11-22T02:59:00.309Z,1022.83
2016-11-22T03:00:00.299Z,1022.84
2016-11-22T03:01:00.292Z,1022.83
2016-11-22T03:02:00.284Z,1022.85
2016-11-22T03:03:00.276Z,1022.87
2016-11-22T03:04:00.276Z,1022.85
2016-11-22T03:05:00.264Z,1022.85
2016-11-22T03:06:00.253Z,1022.83
2016-11-22T03:07:00.246Z,1022.86
2016-11-22T03:08:00.239Z,1022.87
2016-11-22T03:09:00.230Z,1022.86
2016-11-22T03:10:00.224Z,1022.92
2016-11-22T03:11:00.217Z,1022.94
2016-11-22T03:12:00.210Z,1022.94
2016-11-22T03:13:00.199Z,1022.96
2016-11-22T03:14:00.191Z,1023.04
2016-11-22T03:15:00.184Z,1023.02
2016-11-22T03:16:00.178Z,1023.07
2016-11-22T03:17:00.167Z,1023.09
2016-11-22T03:18:00.160Z,1023.19
2016-11-22T03:19:00.155Z,1023.19
2016-11-22T03:20:00.144Z,1023.23
2016-11-22T03:21:00.136Z,1023.22
2016-11-22T03:22:00.128Z,1023.2
2016-11-22T03:23:00.122Z,1023.26
2016-11-22T03:24:00.112Z,1023.26
2016-11-22T03:25:00.104Z,1023.3
2016-11-22T03:26:00.096Z,1023.32
2016-11-22T03:27:00.091Z,1023.34
2016-11-22T03:28:00.080Z,1023.34
2016-11-22T03:29:00.074Z,1023.36
2016-11-22T03:30:00.065Z,1023.35
2016-11-22T03:31:00.056Z,1023.38
2016-11-22T03:32:00.048Z,1023.41
2016-11-22T03:33:00.040Z,1023.43
2016-11-22T03:34:00.032Z,1023.43
2016-11-22T03:35:00.025Z,1023.43
2016-11-22T03:36:00.017Z,1023.45
2016-11-22T03:37:00.009Z,1023.45
2016-11-22T03:38:00.004Z,1023.44
2016-11-22T03:38:59.991Z,1023.51
2016-11-22T03:39:59.983Z,1023.5
2016-11-22T03:40:59.977Z,1023.56
2016-11-22T03:41:59.968Z,1023.55
2016-11-22T03:42:59.960Z,1023.54
2016-11-22T03:43:59.950Z,1023.6
2016-11-22T03:44:59.945Z,1023.59
2016-11-22T03:45:59.934Z,1023.59
2016-11-22T03:46:59.928Z,1023.57
2016-11-22T03:47:59.918Z,1023.54
2016-11-22T03:48:59.912Z,1023.56
2016-11-22T03:49:59.902Z,1023.62
2016-11-22T03:50:59.894Z,1023.57
2016-11-22T03:51:59.886Z,1023.61
2016-11-22T03:52:59.879Z,1023.67
2016-11-22T03:53:59.873Z,1023.72
2016-11-22T03:54:59.861Z,1023.77
2016-11-22T03:55:59.855Z,1023.88
2016-11-22T03:56:59.847Z,1023.89
2016-11-22T03:57:59.836Z,1023.95
2016-11-22T03:58:59.828Z,1023.98
2016-11-22T03:59:59.819Z,1024
2016-11-22T04:00:59.811Z,1024.08
2016-11-22T04:01:59.803Z,1024.11
2016-11-22T04:02:59.795Z,1024.1
2016-11-22T04:03:59.788Z,1024.06
2016-11-22T04:04:59.777Z,1024.06
2016-11-22T04:05:59.772Z,1024.03
2016-11-22T04:06:59.763Z,1024.1
2016-11-22T04:07:59.754Z,1024.07
2016-11-22T04:08:59.744Z,1024.1
2016-11-22T04:09:59.736Z,1024.13
2016-11-22T04:10:59.729Z,1024.15
2016-11-22T04:11:59.721Z,1024.12
2016-11-22T04:12:59.712Z,1024.19
2016-11-22T04:13:59.704Z,1024.2
2016-11-22T04:14:59.695Z,1024.19
2016-11-22T04:15:59.685Z,1024.22
2016-11-22T04:16:59.677Z,1024.27
2016-11-22T04:17:59.670Z,1024.27
2016-11-22T04:18:59.659Z,1024.26
2016-11-22T04:19:59.656Z,1024.25
2016-11-22T04:20:59.645Z,1024.28
2016-11-22T04:21:59.635Z,1024.23
2016-11-22T04:22:59.627Z,1024.31
2016-11-22T04:23:59.617Z,1024.27
2016-11-22T04:24:59.608Z,1024.31
2016-11-22T04:25:59.601Z,1024.34
2016-11-22T04:26:59.593Z,1024.35
2016-11-22T04:27:59.585Z,1024.39
2016-11-22T04:28:59.576Z,1024.37
2016-11-22T04:29:59.567Z,1024.41
2016-11-22T04:30:59.559Z,1024.43
2016-11-22T04:31:59.552Z,1024.5
2016-11-22T04:32:59.541Z,1024.51
2016-11-22T04:33:59.533Z,1024.52
2016-11-22T04:34:59.525Z,1024.55
2016-11-22T04:35:59.517Z,1024.54
2016-11-22T04:36:59.505Z,1024.58
2016-11-22T04:37:59.499Z,1024.59
2016-11-22T04:38:59.491Z,1024.61
2016-11-22T04:39:59.480Z,1024.63
2016-11-22T04:40:59.473Z,1024.61
2016-11-22T04:41:59.463Z,1024.64
2016-11-22T04:42:59.454Z,1024.66
2016-11-22T04:43:59.445Z,1024.72
2016-11-22T04:44:59.439Z,1024.72
2016-11-22T04:45:59.430Z,1024.69
2016-11-22T04:46:59.420Z,1024.7
2016-11-22T04:47:59.410Z,1024.69
2016-11-22T04:48:59.405Z,1024.7
2016-11-22T04:49:59.394Z,1024.73
2016-11-22T04:50:59.385Z,1024.74
2016-11-22T04:51:59.376Z,1024.74
2016-11-22T04:52:59.367Z,1024.77
2016-11-22T04:53:59.361Z,1024.78
2016-11-22T04:54:59.351Z,1024.73
2016-11-22T04:55:59.341Z,1024.79
2016-11-22T04:56:59.335Z,1024.78
2016-11-22T04:57:59.325Z,1024.75
2016-11-22T04:58:59.316Z,1024.78
2016-11-22T04:59:59.308Z,1024.71
2016-11-22T05:00:59.297Z,1024.71
2016-11-22T05:01:59.291Z,1024.73
2016-11-22T05:02:59.280Z,1024.74
2016-11-22T05:03:59.271Z,1024.76
2016-11-22T05:04:59.262Z,1024.79
2016-11-22T05:05:59.253Z,1024.79
2016-11-22T05:06:59.247Z,1024.77
2016-11-22T05:07:59.238Z,1024.81
2016-11-22T05:08:59.227Z,1024.8
2016-11-22T05:09:59.220Z,1024.77
2016-11-22T05:10:59.211Z,1024.74
2016-11-22T05:11:59.201Z,1024.77
2016-11-22T05:12:59.195Z,1024.78
2016-11-22T05:13:59.185Z,1024.78
2016-11-22T05:14:59.176Z,1024.79
2016-11-22T05:15:59.166Z,1024.8
2016-11-22T05:16:59.159Z,1024.82
2016-11-22T05:17:59.151Z,1024.84
2016-11-22T05:18:59.139Z,1024.81
2016-11-22T05:19:59.131Z,1024.85
2016-11-22T05:20:59.123Z,1024.85
2016-11-22T05:21:59.113Z,1024.9
2016-11-22T05:22:59.105Z,1024.9
2016-11-22T05:23:59.097Z,1024.91
2016-11-22T05:24:59.089Z,1024.93
2016-11-22T05:25:59.085Z,1024.97
2016-11-22T05:26:59.072Z,1025
2016-11-22T05:27:59.062Z,1025
2016-11-22T05:28:59.054Z,1025.04
2016-11-22T05:29:59.045Z,1025.09
2016-11-22T05:30:59.035Z,1025.14
2016-11-22T05:31:59.027Z,1025.15
2016-11-22T05:32:59.019Z,1025.15
2016-11-22T05:33:59.008Z,1025.18
2016-11-22T05:34:59.001Z,1025.18
2016-11-22T05:35:58.992Z,1025.23
2016-11-22T05:36:58.983Z,1025.22
2016-11-22T05:37:58.972Z,1025.15
2016-11-22T05:38:58.969Z,1025.19
2016-11-22T05:39:58.956Z,1025.18
2016-11-22T05:40:58.948Z,1025.14
2016-11-22T05:41:58.939Z,1025.14
2016-11-22T05:42:58.927Z,1025.16
2016-11-22T05:43:58.921Z,1025.13
2016-11-22T05:44:58.910Z,1025.15
2016-11-22T05:45:58.902Z,1025.15
2016-11-22T05:46:58.899Z,1025.13
2016-11-22T05:47:58.885Z,1025.13
2016-11-22T05:48:58.877Z,1025.16
2016-11-22T05:49:58.865Z,1025.18
2016-11-22T05:50:58.858Z,1025.18
2016-11-22T05:51:58.850Z,1025.2
2016-11-22T05:52:58.842Z,1025.24
2016-11-22T05:53:58.829Z,1025.24
2016-11-22T05:54:58.823Z,1025.23
2016-11-22T05:55:58.812Z,1025.17
2016-11-22T05:56:58.805Z,1025.16
2016-11-22T05:57:58.794Z,1025.14
2016-11-22T05:58:58.787Z,1025.22
2016-11-22T05:59:58.782Z,1025.19
2016-11-22T06:00:58.767Z,1025.27
2016-11-22T06:01:58.760Z,1025.24
2016-11-22T06:02:58.752Z,1025.28
2016-11-22T06:03:58.743Z,1025.27
2016-11-22T06:04:58.735Z,1025.3
2016-11-22T06:05:58.722Z,1025.31
2016-11-22T06:06:58.716Z,1025.3
2016-11-22T06:07:58.704Z,1025.33
2016-11-22T06:08:59.106Z,1025.29
2016-11-22T06:09:58.689Z,1025.32
2016-11-22T06:10:58.678Z,1025.31
2016-11-22T06:11:58.670Z,1025.3
2016-11-22T06:12:58.660Z,1025.36
2016-11-22T06:13:58.651Z,1025.35
2016-11-22T06:14:58.647Z,1025.39
2016-11-22T06:15:58.636Z,1025.38
2016-11-22T06:16:58.624Z,1025.44
2016-11-22T06:17:58.615Z,1025.41
2016-11-22T06:18:58.608Z,1025.39
2016-11-22T06:19:58.599Z,1025.43
2016-11-22T06:20:58.589Z,1025.45
2016-11-22T06:21:58.579Z,1025.47
2016-11-22T06:22:58.572Z,1025.46
2016-11-22T06:23:58.561Z,1025.46
2016-11-22T06:24:58.552Z,1025.49
2016-11-22T06:25:58.543Z,1025.46
2016-11-22T06:26:58.534Z,1025.48
2016-11-22T06:27:58.525Z,1025.41
2016-11-22T06:28:58.518Z,1025.47
2016-11-22T06:29:58.509Z,1025.42
2016-11-22T06:30:58.499Z,1025.45
2016-11-22T06:31:58.489Z,1025.4
2016-11-22T06:32:58.481Z,1025.39
2016-11-22T06:33:58.473Z,1025.41
2016-11-22T06:34:58.465Z,1025.4
2016-11-22T06:35:58.455Z,1025.37
2016-11-22T06:36:58.448Z,1025.33
2016-11-22T06:37:58.438Z,1025.35
2016-11-22T06:38:58.428Z,1025.38
2016-11-22T06:39:58.419Z,1025.34
2016-11-22T06:40:58.412Z,1025.3
2016-11-22T06:41:58.403Z,1025.31
2016-11-22T06:42:58.395Z,1025.32
2016-11-22T06:43:58.384Z,1025.32
2016-11-22T06:44:58.375Z,1025.32
2016-11-22T06:45:58.366Z,1025.37
2016-11-22T06:46:58.364Z,1025.38
2016-11-22T06:47:58.353Z,1025.36
2016-11-22T06:48:58.342Z,1025.31
2016-11-22T06:49:58.334Z,1025.37
2016-11-22T06:50:58.324Z,1025.38
2016-11-22T06:51:58.317Z,1025.33
2016-11-22T06:52:58.308Z,1025.33
2016-11-22T06:53:58.298Z,1025.35
2016-11-22T06:54:58.289Z,1025.37
2016-11-22T06:55:58.282Z,1025.34
2016-11-22T06:56:58.274Z,1025.36
2016-11-22T06:57:58.263Z,1025.36
2016-11-22T06:58:58.257Z,1025.35
2016-11-22T06:59:58.249Z,1025.38
2016-11-22T07:00:58.239Z,1025.38
2016-11-22T07:01:58.232Z,1025.36
2016-11-22T07:02:58.221Z,1025.35
2016-11-22T07:03:58.213Z,1025.35
2016-11-22T07:04:58.208Z,1025.37
2016-11-22T07:05:58.199Z,1025.36
2016-11-22T07:06:58.190Z,1025.38
2016-11-22T07:07:58.181Z,1025.39
2016-11-22T07:08:58.173Z,1025.43
2016-11-22T07:09:58.162Z,1025.43
2016-11-22T07:10:58.155Z,1025.44
2016-11-22T07:11:58.145Z,1025.44
2016-11-22T07:12:58.139Z,1025.52
2016-11-22T07:13:58.128Z,1025.53
2016-11-22T07:14:58.122Z,1025.53
2016-11-22T07:15:58.111Z,1025.53
2016-11-22T07:16:58.103Z,1025.49
2016-11-22T07:17:58.097Z,1025.52
2016-11-22T07:18:58.086Z,1025.5
2016-11-22T07:19:58.078Z,1025.49
2016-11-22T07:20:58.068Z,1025.53
2016-11-22T07:21:58.060Z,1025.56
2016-11-22T07:22:58.052Z,1025.55
2016-11-22T07:23:58.046Z,1025.58
2016-11-22T07:24:58.035Z,1025.54
2016-11-22T07:25:58.029Z,1025.59
2016-11-22T07:26:58.021Z,1025.59
2016-11-22T07:27:58.013Z,1025.58
2016-11-22T07:28:58.001Z,1025.58
2016-11-22T07:29:57.994Z,1025.58
2016-11-22T07:30:57.988Z,1025.55
2016-11-22T07:31:57.979Z,1025.56
2016-11-22T07:32:57.969Z,1025.52
2016-11-22T07:33:57.961Z,1025.55
2016-11-22T07:34:57.956Z,1025.55
2016-11-22T07:35:57.944Z,1025.52
2016-11-22T07:36:57.941Z,1025.52
2016-11-22T07:37:57.930Z,1025.47
2016-11-22T07:38:57.920Z,1025.49
2016-11-22T07:39:57.913Z,1025.41
2016-11-22T07:40:57.907Z,1025.39
2016-11-22T07:41:57.898Z,1025.38
2016-11-22T07:42:57.889Z,1025.35
2016-11-22T07:43:57.879Z,1025.34
2016-11-22T07:44:57.874Z,1025.34
2016-11-22T07:45:57.864Z,1025.29
2016-11-22T07:46:57.855Z,1025.31
2016-11-22T07:47:57.849Z,1025.3
2016-11-22T07:48:57.842Z,1025.28
2016-11-22T07:49:57.834Z,1025.25
2016-11-22T07:50:57.823Z,1025.29
2016-11-22T07:51:57.816Z,1025.23
2016-11-22T07:52:57.811Z,1025.22
2016-11-22T07:53:57.799Z,1025.2
2016-11-22T07:54:57.792Z,1025.18
2016-11-22T07:55:57.785Z,1025.19
2016-11-22T07:56:57.780Z,1025.17
2016-11-22T07:57:57.781Z,1025.13
2016-11-22T07:58:57.763Z,1025.11
2016-11-22T07:59:57.756Z,1025.09
2016-11-22T08:00:57.747Z,1025.06
2016-11-22T08:01:57.738Z,1025.09
2016-11-22T08:02:57.734Z,1025.15
2016-11-22T08:03:57.726Z,1025.15
2016-11-22T08:04:57.718Z,1025.21
2016-11-22T08:05:57.710Z,1025.18
2016-11-22T08:06:57.701Z,1025.18
2016-11-22T08:07:57.694Z,1025.24
2016-11-22T08:08:57.686Z,1025.2
2016-11-22T08:09:57.678Z,1025.21
2016-11-22T08:10:57.671Z,1025.16
2016-11-22T08:11:57.666Z,1025.16
2016-11-22T08:12:57.658Z,1025.1
2016-11-22T08:13:57.649Z,1025.11
2016-11-22T08:14:57.644Z,1025.07
2016-11-22T08:15:57.636Z,1025.13
2016-11-22T08:16:57.629Z,1025.07
2016-11-22T08:17:57.619Z,1025.06
2016-11-22T08:18:57.612Z,1025.06
2016-11-22T08:19:57.605Z,1025.07
2016-11-22T08:20:57.600Z,1025.08
2016-11-22T08:21:57.594Z,1025.06
2016-11-22T08:22:57.586Z,1025.03
2016-11-22T08:23:57.576Z,1025.01
2016-11-22T08:24:57.571Z,1025
2016-11-22T08:25:57.562Z,1024.97
2016-11-22T08:26:57.554Z,1024.97
2016-11-22T08:27:57.549Z,1024.97
2016-11-22T08:28:57.543Z,1024.96
2016-11-22T08:29:57.533Z,1024.93
2016-11-22T08:30:57.528Z,1024.89
2016-11-22T08:31:57.521Z,1024.87
2016-11-22T08:32:57.512Z,1024.89
2016-11-22T08:33:57.506Z,1024.87
2016-11-22T08:34:57.501Z,1024.88
2016-11-22T08:35:57.494Z,1024.89
2016-11-22T08:36:57.488Z,1024.89
2016-11-22T08:37:57.480Z,1024.86
2016-11-22T08:38:57.475Z,1024.86
2016-11-22T08:39:57.467Z,1024.88
2016-11-22T08:40:57.461Z,1024.9
2016-11-22T08:41:57.451Z,1024.9
2016-11-22T08:42:57.447Z,1024.88
2016-11-22T08:43:57.440Z,1024.9
2016-11-22T08:44:57.431Z,1024.88
2016-11-22T08:45:57.427Z,1024.84
2016-11-22T08:46:57.420Z,1024.84
2016-11-22T08:47:57.414Z,1024.83
2016-11-22T08:48:57.405Z,1024.84
2016-11-22T08:49:57.401Z,1024.82
2016-11-22T08:50:57.412Z,1024.83
2016-11-22T08:51:57.386Z,1024.88
2016-11-22T08:52:57.379Z,1024.86
2016-11-22T08:53:57.374Z,1024.84
2016-11-22T08:54:57.369Z,1024.81
2016-11-22T08:55:57.360Z,1024.81
2016-11-22T08:56:57.352Z,1024.77
2016-11-22T08:57:57.346Z,1024.77
2016-11-22T08:58:57.342Z,1024.76
2016-11-22T08:59:57.335Z,1024.75
2016-11-22T09:00:57.329Z,1024.75
2016-11-22T09:01:57.325Z,1024.73
2016-11-22T09:02:57.318Z,1024.77
2016-11-22T09:03:57.310Z,1024.76
2016-11-22T09:04:57.301Z,1024.73
2016-11-22T09:05:57.299Z,1024.73
2016-11-22T09:06:57.292Z,1024.71
2016-11-22T09:07:57.282Z,1024.69
2016-11-22T09:08:57.277Z,1024.68
2016-11-22T09:09:57.272Z,1024.66
2016-11-22T09:10:57.264Z,1024.68
2016-11-22T09:11:57.258Z,1024.72
2016-11-22T09:12:57.254Z,1024.76
2016-11-22T09:13:57.246Z,1024.73
2016-11-22T09:14:57.258Z,1024.72
2016-11-22T09:15:57.235Z,1024.71
2016-11-22T09:16:57.227Z,1024.68
2016-11-22T09:17:57.220Z,1024.72
2016-11-22T09:18:57.218Z,1024.71
2016-11-22T09:19:57.211Z,1024.72
2016-11-22T09:20:57.205Z,1024.69
2016-11-22T09:21:57.196Z,1024.69
2016-11-22T09:22:57.190Z,1024.61
2016-11-22T09:23:57.185Z,1024.59
2016-11-22T09:24:57.181Z,1024.55
2016-11-22T09:25:57.172Z,1024.51
2016-11-22T09:26:57.170Z,1024.49
2016-11-22T09:27:57.163Z,1024.47
2016-11-22T09:28:57.154Z,1024.48
2016-11-22T09:29:57.151Z,1024.46
2016-11-22T09:30:57.145Z,1024.46
2016-11-22T09:31:57.138Z,1024.47
2016-11-22T09:32:57.131Z,1024.44
2016-11-22T09:33:57.125Z,1024.42
2016-11-22T09:34:57.122Z,1024.44
2016-11-22T09:35:57.114Z,1024.37
2016-11-22T09:36:57.108Z,1024.39
2016-11-22T09:37:57.104Z,1024.39
2016-11-22T09:38:57.099Z,1024.36
2016-11-22T09:39:57.092Z,1024.4
2016-11-22T09:40:57.087Z,1024.38
2016-11-22T09:41:57.079Z,1024.4
2016-11-22T09:42:57.074Z,1024.41
2016-11-22T09:43:57.069Z,1024.39
2016-11-22T09:44:57.064Z,1024.4
2016-11-22T09:45:57.056Z,1024.39
2016-11-22T09:46:57.051Z,1024.4
2016-11-22T09:47:57.046Z,1024.41
2016-11-22T09:48:57.039Z,1024.4
2016-11-22T09:49:57.036Z,1024.4
2016-11-22T09:50:57.028Z,1024.44
2016-11-22T09:51:57.025Z,1024.42
2016-11-22T09:52:57.017Z,1024.43
2016-11-22T09:53:57.012Z,1024.39
2016-11-22T09:54:57.007Z,1024.38
2016-11-22T09:55:57.002Z,1024.35
2016-11-22T09:56:56.996Z,1024.37
2016-11-22T09:57:56.990Z,1024.34
2016-11-22T09:58:56.983Z,1024.36
2016-11-22T09:59:56.979Z,1024.36
2016-11-22T10:00:56.973Z,1024.42
2016-11-22T10:01:56.967Z,1024.41
2016-11-22T10:02:56.963Z,1024.37
2016-11-22T10:03:56.956Z,1024.36
2016-11-22T10:04:56.953Z,1024.39
2016-11-22T10:05:56.947Z,1024.38
2016-11-22T10:06:56.942Z,1024.37
2016-11-22T10:07:56.936Z,1024.36
2016-11-22T10:08:56.931Z,1024.35
2016-11-22T10:09:56.927Z,1024.36
2016-11-22T10:10:56.920Z,1024.34
2016-11-22T10:11:56.914Z,1024.36
2016-11-22T10:12:56.908Z,1024.35
2016-11-22T10:13:56.903Z,1024.33
2016-11-22T10:14:56.898Z,1024.33
2016-11-22T10:15:56.892Z,1024.3
2016-11-22T10:16:56.888Z,1024.27
2016-11-22T10:17:56.881Z,1024.23
2016-11-22T10:18:56.876Z,1024.22
2016-11-22T10:19:56.870Z,1024.15
2016-11-22T10:20:56.865Z,1024.2
2016-11-22T10:21:56.861Z,1024.23
2016-11-22T10:22:56.858Z,1024.21
2016-11-22T10:23:56.850Z,1024.19
2016-11-22T10:24:56.948Z,1024.18
2016-11-22T10:25:56.842Z,1024.21
2016-11-22T10:26:56.835Z,1024.19
2016-11-22T10:27:56.828Z,1024.2
2016-11-22T10:28:56.825Z,1024.17
2016-11-22T10:29:56.818Z,1024.14
2016-11-22T10:30:56.812Z,1024.14
2016-11-22T10:31:56.810Z,1024.1
2016-11-22T10:32:56.804Z,1024.06
2016-11-22T10:33:56.798Z,1024.05
2016-11-22T10:34:56.794Z,1024.07
2016-11-22T10:35:56.788Z,1024.05
2016-11-22T10:36:56.785Z,1024.08
2016-11-22T10:37:56.778Z,1024.07
2016-11-22T10:38:56.774Z,1024.05
2016-11-22T10:39:56.768Z,1024.05
2016-11-22T10:40:56.765Z,1024.06
2016-11-22T10:41:56.757Z,1024.13
2016-11-22T10:42:56.752Z,1024.16
2016-11-22T10:43:56.749Z,1024.13
2016-11-22T10:44:56.745Z,1024.07
2016-11-22T10:45:56.740Z,1024.07
2016-11-22T10:46:56.735Z,1024.05
2016-11-22T10:47:56.729Z,1024.02
2016-11-22T10:48:56.726Z,1024
2016-11-22T10:49:56.718Z,1023.98
2016-11-22T10:50:56.714Z,1023.99
2016-11-22T10:51:56.709Z,1023.98
2016-11-22T10:52:56.704Z,1024
2016-11-22T10:53:56.701Z,1024.03
2016-11-22T10:54:56.698Z,1024.01
2016-11-22T10:55:56.692Z,1024.02
2016-11-22T10:56:56.687Z,1024
2016-11-22T10:57:56.681Z,1024
2016-11-22T10:58:56.678Z,1024.03
2016-11-22T10:59:56.673Z,1024.03
2016-11-22T11:00:56.666Z,1024.08
2016-11-22T11:01:56.662Z,1024.11
2016-11-22T11:02:56.657Z,1024.11
2016-11-22T11:03:56.653Z,1024.18
2016-11-22T11:04:56.650Z,1024.19
2016-11-22T11:05:56.643Z,1024.19
2016-11-22T11:06:56.640Z,1024.16
2016-11-22T11:07:56.636Z,1024.23
2016-11-22T11:08:56.631Z,1024.23
2016-11-22T11:09:56.625Z,1024.15
2016-11-22T11:10:56.623Z,1024.11
2016-11-22T11:11:56.619Z,1024.08
2016-11-22T11:12:56.612Z,1024.11
2016-11-22T11:13:56.609Z,1024.1
2016-11-22T11:14:56.601Z,1024.12
2016-11-22T11:15:56.597Z,1024.12
2016-11-22T11:16:56.593Z,1024.08
2016-11-22T11:17:56.590Z,1024.06
2016-11-22T11:18:56.585Z,1024.03
2016-11-22T11:19:56.579Z,1024.06
2016-11-22T11:20:56.576Z,1024.06
2016-11-22T11:21:56.570Z,1024.06
2016-11-22T11:22:56.565Z,1024.04
2016-11-22T11:23:56.561Z,1024.02
2016-11-22T11:24:56.558Z,1024.04
2016-11-22T11:25:56.550Z,1024.06
2016-11-22T11:26:56.549Z,1024.09
2016-11-22T11:27:56.544Z,1024.11
2016-11-22T11:28:56.538Z,1024.1
2016-11-22T11:29:56.534Z,1024.07
2016-11-22T11:30:56.528Z,1024.08
2016-11-22T11:31:56.524Z,1024.08
2016-11-22T11:32:56.519Z,1024.09
2016-11-22T11:33:56.517Z,1024.08
2016-11-22T11:34:56.512Z,1024.08
2016-11-22T11:35:56.507Z,1024.12
2016-11-22T11:36:56.502Z,1024.05
2016-11-22T11:37:56.496Z,1024.08
2016-11-22T11:38:56.495Z,1024.09
2016-11-22T11:39:56.487Z,1024.17
2016-11-22T11:40:56.484Z,1024.15
2016-11-22T11:41:56.479Z,1024.15
2016-11-22T11:42:56.475Z,1024.17
2016-11-22T11:43:56.473Z,1024.18
2016-11-22T11:44:56.466Z,1024.21
2016-11-22T11:45:56.460Z,1024.19
2016-11-22T11:46:56.458Z,1024.21
2016-11-22T11:47:56.451Z,1024.24
2016-11-22T11:48:56.449Z,1024.22
2016-11-22T11:49:56.446Z,1024.21
2016-11-22T11:50:56.438Z,1024.24
2016-11-22T11:51:56.432Z,1024.18
2016-11-22T11:52:56.430Z,1024.27
2016-11-22T11:53:56.426Z,1024.25
2016-11-22T11:54:56.420Z,1024.27
2016-11-22T11:55:56.416Z,1024.21
2016-11-22T11:56:56.410Z,1024.2
2016-11-22T11:57:56.408Z,1024.18
2016-11-22T11:58:56.406Z,1024.2
2016-11-22T11:59:56.396Z,1024.19
2016-11-22T12:00:56.394Z,1024.2
2016-11-22T12:01:56.387Z,1024.24
2016-11-22T12:02:56.386Z,1024.22
2016-11-22T12:03:56.378Z,1024.29
2016-11-22T12:04:56.376Z,1024.28
2016-11-22T12:05:56.371Z,1024.27
2016-11-22T12:06:56.364Z,1024.29
2016-11-22T12:07:56.362Z,1024.3